Metar Cercanos

 

LEPA - Palma De Mallorc, Spain
Distance from station: ONO 38km
Actualización: Wed, 07-Dec-2022 1:30am CET
Few Clouds
Few Clouds
 Viento del ENE
Viento: ENE 6 km/h
Temperatura: 11°C
Rocío: 11°C
Humedad: 100%
Barómetro: 1015 hPa
Clouds: Few Clouds
Visibility: 9 km
Cloud details: Few Clouds 762 m
2022/12/07 00:30 LEPA 070030Z 07003KT 9000 FEW025 11/11 Q1015 NOSIG
LEMH - Mahon/Menorca Is, Spain
Distance from station: ENE 105km
Actualización: Wed, 07-Dec-2022 1:30am CET
Despejado
Despejado
 Viento del N
Viento: N 11 km/h
Temperatura: 11°C
Rocío: 11°C
Humedad: 100%
Barómetro: 1014 hPa
Resumen: Despejado
Visibility: greater than 10 km
2022/12/07 00:30 LEMH 070030Z AUTO 35006KT CAVOK 11/11 Q1014
 
LEIB - Ibiza/Es Codola, Spain
Distance from station: OSO 165km
Actualización: Wed, 07-Dec-2022 1:30am CET
Despejado
Despejado
 Viento del calm
Viento: Calma
Temperatura: 14°C
Rocío: 13°C
Humedad: 94%
Barómetro: 1015 hPa
Resumen: Despejado
Visibility: greater than 10 km
2022/12/07 00:30 LEIB 070030Z AUTO 00000KT CAVOK 14/13 Q1015
LEBL - Barcelona Airpor, Spain
Distance from station: NNO 225km
Actualización: Wed, 07-Dec-2022 1:30am CET
Parcialmente nuboso
Parcialmente nuboso
 Viento del NO
Viento: NO 13 km/h
Temperatura: 9°C
Sensación frio: 7°C
Rocío: 8°C
Humedad: 94%
Barómetro: 1015 hPa
Clouds: Parcialmente nuboso
Visibility: 6 km
2022/12/07 00:30 LEBL 070030Z 32007KT 6000 NSC 09/08 Q1015 NOSIG
 
LEVC - Valencia (civ/Mi, Spain
Distance from station: NO 188km
Actualización: Wed, 07-Dec-2022 1:30am CET
Parcialmente nuboso
Parcialmente nuboso
 Viento del O
Viento: O 4 km/h
Temperatura: 12°C
Rocío: 11°C
Humedad: 94%
Barómetro: 1015 hPa
Clouds: Parcialmente nuboso
Visibility: 7 km
2022/12/07 00:30 LEVC 070030Z 27002KT 7000 NSC 12/11 Q1015 NOSIG
LEGE - Gerona/Costa Bra, Spain
Distance from station: N 276km
Actualización: Wed, 07-Dec-2022 1:30am CET
Niebla, Muy nuboso
Niebla, Muy nuboso
 Viento del calm
Viento: Calma
Temperatura: 5°C
Rocío: 5°C
Humedad: 100%
Barómetro: 1014 hPa
Resumen: Niebla
Clouds: Muy nuboso
Visibility: 1 km
Cloud details: Muy nuboso 549 m
2022/12/07 00:30 LEGE 070030Z 00000KT 0500 R19/0400N R01/1700U FG BKN018 05/05 Q1014
 
LEAL - Alicante/El Alte, Spain
Distance from station: OSO 344km
Actualización: Wed, 07-Dec-2022 1:30am CET
Few Clouds
Few Clouds
 Viento del O
Viento: O 6 km/h
Temperatura: 14°C
Rocío: 13°C
Humedad: 94%
Barómetro: 1015 hPa
Clouds: Few Clouds
Visibility: 10 km
Cloud details: Few Clouds 1524 m
2022/12/07 00:30 LEAL 070030Z 27003KT 9999 FEW050 14/13 Q1015 NOSIG
LEAM - Almeria Airport, Spain
Distance from station: SSO 56km
Actualización: Wed, 07-Dec-2022 1:30am CET
Despejado
Despejado
 Viento del varies
Viento: varies 2 km/h
Temperatura: 14°C
Rocío: 12°C
Humedad: 88%
Barómetro: 1015 hPa
Resumen: Despejado
Visibility: greater than 10 km
2022/12/07 00:30 LEAM 070030Z AUTO VRB01KT CAVOK 14/12 Q1015
 
LEZG - Zaragoza (mil/Ci, Spain
Distance from station: NO 431km
Actualización: Wed, 07-Dec-2022 1:30am CET
Mist, Cubierto
Mist, Cubierto
 Viento del ONO
Viento: ONO 11 km/h
Temperatura: 8°C
Sensación frio: 6°C
Rocío: 8°C
Humedad: 100%
Barómetro: 1016 hPa
Resumen: Mist
Clouds: Cubierto
Visibility: 3 km
Cloud details: Cubierto 122 m
2022/12/07 00:30 LEZG 070030Z 30006KT 3000 BR OVC004 08/08 Q1016
LEMD - Madrid/Barajas, Spain
Distance from station: ONO 234km
Actualización: Wed, 07-Dec-2022 1:30am CET
Mist, Muy nuboso
Mist, Muy nuboso
 Viento del varies
Viento: varies 4 km/h
Temperatura: 9°C
Rocío: 9°C
Humedad: 100%
Barómetro: 1016 hPa
Resumen: Mist
Clouds: Muy nuboso
Visibility: 3 km
Cloud details: Parcialmente nuboso 457 m
Muy nuboso 2134 m
2022/12/07 00:30 LEMD 070030Z VRB02KT 3000 BR SCT015 BKN070 09/09 Q1016 NOSIG
 
LEGR - Granada Airport, Spain
Distance from station: OSO 62km
Actualización: Wed, 07-Dec-2022 1:30am CET
Muy nuboso
Muy nuboso
 Viento del S
Viento: S 7 km/h
Temperatura: 7°C
Sensación frio: 6°C
Rocío: 7°C
Humedad: 100%
Barómetro: 1017 hPa
Clouds: Muy nuboso
Visibility: 10 km
Cloud details: Muy nuboso 213 m
2022/12/07 00:30 LEGR 070030Z AUTO 17004KT 9999 BKN007 07/07 Q1017
LEMG - Malaga (civ/Mil), Spain
Distance from station: OSO 227km
Actualización: Wed, 07-Dec-2022 1:30am CET
Despejado
Despejado
 Viento del NO
Viento: NO 13 km/h
Temperatura: 12°C
Rocío: 11°C
Humedad: 94%
Barómetro: 1016 hPa
Resumen: Despejado
Visibility: greater than 10 km
2022/12/07 00:30 LEMG 070030Z 31007KT CAVOK 12/11 Q1016 NOSIG
 
LEZL - Sevilla (civ/Mil, Spain
Distance from station: S 318km
Actualización: Wed, 07-Dec-2022 1:30am CET
Mist, Parcialmente nuboso
Mist, Parcialmente nuboso
 Viento del NNE
Viento: NNE 2 km/h
Temperatura: 12°C
Rocío: 12°C
Humedad: 100%
Barómetro: 1016 hPa
Resumen: Mist
Clouds: Parcialmente nuboso
Visibility: 3 km
2022/12/07 00:30 LEZL 070030Z AUTO 03001KT 3300 BR NSC 12/12 Q1016
LEVT - Vitoria, Spain
Distance from station: NO 226km
Actualización: Wed, 07-Dec-2022 1:30am CET
Mist, Muy nuboso
Mist, Muy nuboso
 Viento del SSE
Viento: SSE 2 km/h
Temperatura: 5°C
Rocío: 5°C
Humedad: 100%
Barómetro: 1017 hPa
Resumen: Mist
Clouds: Muy nuboso
Visibility: 4 km
Cloud details: Muy nuboso 2134 m
2022/12/07 00:30 LEVT 070030Z 16001KT 4000 BR BKN070 05/05 Q1017
 
LEBB - Bilbao/Sondica, Spain
Distance from station: NNO 235km
Actualización: Wed, 07-Dec-2022 1:30am CET
Parcialmente nuboso
Parcialmente nuboso
 Viento del calm
Viento: Calma
Temperatura: 10°C
Rocío: 10°C
Humedad: 100%
Barómetro: 1017 hPa
Clouds: Parcialmente nuboso
Visibility: 10 km
Cloud details: Parcialmente nuboso 488 m
2022/12/07 00:30 LEBB 070030Z AUTO 00000KT 9999 SCT016 10/10 Q1017
LESO - San Sebastian/Fu, Spain
Distance from station: N 231km
Actualización: Wed, 07-Dec-2022 1:30am CET
Parcialmente nuboso
Parcialmente nuboso
 Viento del SSO
Viento: SSO 9 km/h
Temperatura: 11°C
Rocío: 10°C
Humedad: 94%
Barómetro: 1016 hPa
Clouds: Parcialmente nuboso
Visibility: 10 km
Cloud details: Parcialmente nuboso 1524 m
2022/12/07 00:30 LESO 070030Z AUTO 20005KT 9999 SCT050 11/10 Q1016
 
LEVD - Valladolid(Mil/C, Spain
Distance from station: ONO 239km
Actualización: Wed, 07-Dec-2022 1:30am CET
Mist, Few clouds
Mist, Few clouds
 Viento del ENE
Viento: ENE 6 km/h
Temperatura: 7°C
Rocío: 6°C
Humedad: 93%
Barómetro: 1016 hPa
Resumen: Mist
Clouds: Few Clouds
Visibility: 4 km
Cloud details: Few Clouds 1494 m
2022/12/07 00:30 LEVD 070030Z AUTO 06003KT 3900 BR FEW049 07/06 Q1016
LESA - Salamanca (civ/M, Spain
Distance from station: ONO 349km
Actualización: Wed, 07-Dec-2022 1:30am CET
Lluvia débil, Mist, Few clouds
Lluvia débil, Mist, Few clouds
 Viento del ENE
Viento: ENE 7 km/h
Temperatura: 7°C
Sensación frio: 6°C
Rocío: 7°C
Humedad: 100%
Barómetro: 1016 hPa
Resumen: Lluvia débil, Mist
Clouds: Few Clouds
Visibility: 4 km
Cloud details: Few Clouds 1433 m
2022/12/07 00:30 LESA 070030Z AUTO 06004KT 3800 -RA BR FEW047 07/07 Q1016
 
LEXJ - Santander/Paraya, Spain
Distance from station: NNO 247km
Actualización: Wed, 07-Dec-2022 1:30am CET
Cubierto
Cubierto
 Viento del NO
Viento: NO 2 km/h
Temperatura: 11°C
Rocío: 8°C
Humedad: 82%
Barómetro: 1017 hPa
Clouds: Cubierto
Visibility: 7 km
Cloud details: Cubierto 2438 m
2022/12/07 00:30 LEXJ 070030Z AUTO 32001KT 7000 OVC080 11/08 Q1017
LEAS - Asturias/Aviles, Spain
Distance from station: NO 214km
Actualización: Wed, 07-Dec-2022 1:30am CET
Cubierto
Cubierto
 Viento del calm
Viento: Calma
Temperatura: 11°C
Rocío: 10°C
Humedad: 94%
Barómetro: 1016 hPa
Clouds: Cubierto
Visibility: 10 km
Cloud details: Cubierto 2438 m
2022/12/07 00:30 LEAS 070030Z AUTO 00000KT 9999 OVC080 11/10 Q1016
 
LECO - La Coruna/Alvedr, Spain
Distance from station: ONO 222km
Actualización: Wed, 07-Dec-2022 1:30am CET

 Viento del varies
Viento: varies 2 km/h
Visibility: 4 km
2022/12/07 00:30 LECO 070030Z AUTO VRB01KT 3600 1700 BR NSC 11/11 Q1016
LEVX - Vigo/Peinador, Spain
Distance from station: O 214km
Actualización: Wed, 07-Dec-2022 1:30am CET
Parcialmente nuboso
Parcialmente nuboso
 Viento del OSO
Viento: OSO 7 km/h
Temperatura: 10°C
Sensación frio: 9°C
Rocío: 9°C
Humedad: 94%
Barómetro: 1015 hPa
Clouds: Parcialmente nuboso
Visibility: 9 km
2022/12/07 00:30 LEVX 070030Z 24004KT 9000 NSC 10/09 Q1015 NOSIG